sensor_id;sensor_type;location;lat;lon;timestamp;temperature;humidity
41060;DHT22;26811;53.160;8.202;2023-02-03T00:00:27;7.90;99.90
41060;DHT22;26811;53.160;8.202;2023-02-03T00:05:30;8.00;99.90
41060;DHT22;26811;53.160;8.202;2023-02-03T00:10:36;7.90;99.90
41060;DHT22;26811;53.160;8.202;2023-02-03T00:15:37;7.90;99.90
41060;DHT22;26811;53.160;8.202;2023-02-03T00:20:38;7.90;99.90
41060;DHT22;26811;53.160;8.202;2023-02-03T00:25:39;7.90;99.90
41060;DHT22;26811;53.160;8.202;2023-02-03T00:30:39;7.80;99.90
41060;DHT22;26811;53.160;8.202;2023-02-03T00:35:40;7.80;99.90
41060;DHT22;26811;53.160;8.202;2023-02-03T00:40:41;7.80;99.90
41060;DHT22;26811;53.160;8.202;2023-02-03T00:45:41;7.90;99.90
41060;DHT22;26811;53.160;8.202;2023-02-03T00:50:44;7.90;99.90
41060;DHT22;26811;53.160;8.202;2023-02-03T00:55:45;8.00;99.90
41060;DHT22;26811;53.160;8.202;2023-02-03T01:00:45;8.00;99.90
41060;DHT22;26811;53.160;8.202;2023-02-03T01:05:46;8.00;99.90
41060;DHT22;26811;53.160;8.202;2023-02-03T01:10:46;8.00;99.90
41060;DHT22;26811;53.160;8.202;2023-02-03T01:15:47;8.00;99.90
41060;DHT22;26811;53.160;8.202;2023-02-03T01:20:47;8.00;99.90
41060;DHT22;26811;53.160;8.202;2023-02-03T01:25:48;8.10;99.90
41060;DHT22;26811;53.160;8.202;2023-02-03T01:30:48;8.10;99.90
41060;DHT22;26811;53.160;8.202;2023-02-03T01:35:49;8.10;99.90
41060;DHT22;26811;53.160;8.202;2023-02-03T01:40:49;8.10;99.90
41060;DHT22;26811;53.160;8.202;2023-02-03T01:45:50;8.10;99.90
41060;DHT22;26811;53.160;8.202;2023-02-03T01:50:51;8.00;99.90
41060;DHT22;26811;53.160;8.202;2023-02-03T01:55:51;8.00;99.90
41060;DHT22;26811;53.160;8.202;2023-02-03T02:00:53;8.10;99.90
41060;DHT22;26811;53.160;8.202;2023-02-03T02:06:03;8.10;99.90
41060;DHT22;26811;53.160;8.202;2023-02-03T02:11:04;8.10;99.90
41060;DHT22;26811;53.160;8.202;2023-02-03T02:22:02;8.10;99.90
41060;DHT22;26811;53.160;8.202;2023-02-03T02:32:26;8.10;99.90
41060;DHT22;26811;53.160;8.202;2023-02-03T02:42:45;8.10;99.90
41060;DHT22;26811;53.160;8.202;2023-02-03T02:47:49;8.20;99.90
41060;DHT22;26811;53.160;8.202;2023-02-03T02:52:52;8.20;99.90
41060;DHT22;26811;53.160;8.202;2023-02-03T02:57:56;8.20;99.90
41060;DHT22;26811;53.160;8.202;2023-02-03T03:03:15;8.20;99.90
41060;DHT22;26811;53.160;8.202;2023-02-03T03:08:19;8.20;99.90
41060;DHT22;26811;53.160;8.202;2023-02-03T03:13:26;8.20;99.90
41060;DHT22;26811;53.160;8.202;2023-02-03T03:18:30;8.20;99.90
41060;DHT22;26811;53.160;8.202;2023-02-03T03:23:40;8.20;99.90
41060;DHT22;26811;53.160;8.202;2023-02-03T03:28:46;8.30;99.90
41060;DHT22;26811;53.160;8.202;2023-02-03T03:33:48;8.30;99.90
41060;DHT22;26811;53.160;8.202;2023-02-03T03:39:00;8.40;99.90
41060;DHT22;26811;53.160;8.202;2023-02-03T03:44:04;8.40;99.90
41060;DHT22;26811;53.160;8.202;2023-02-03T03:49:08;8.40;99.90
41060;DHT22;26811;53.160;8.202;2023-02-03T03:54:13;8.40;99.90
41060;DHT22;26811;53.160;8.202;2023-02-03T03:59:16;8.40;99.90
41060;DHT22;26811;53.160;8.202;2023-02-03T04:04:20;8.40;99.90
41060;DHT22;26811;53.160;8.202;2023-02-03T04:09:21;8.50;99.90
41060;DHT22;26811;53.160;8.202;2023-02-03T04:14:22;8.50;99.90
41060;DHT22;26811;53.160;8.202;2023-02-03T04:19:22;8.50;99.90
41060;DHT22;26811;53.160;8.202;2023-02-03T04:24:23;8.60;99.90
41060;DHT22;26811;53.160;8.202;2023-02-03T04:29:23;8.60;99.90
41060;DHT22;26811;53.160;8.202;2023-02-03T04:34:24;8.60;99.90
41060;DHT22;26811;53.160;8.202;2023-02-03T04:39:24;8.60;99.90
41060;DHT22;26811;53.160;8.202;2023-02-03T04:44:25;8.60;99.90
41060;DHT22;26811;53.160;8.202;2023-02-03T04:49:25;8.60;99.90
41060;DHT22;26811;53.160;8.202;2023-02-03T04:54:26;8.60;99.90
41060;DHT22;26811;53.160;8.202;2023-02-03T04:59:26;8.60;99.90
41060;DHT22;26811;53.160;8.202;2023-02-03T05:04:27;8.60;99.90
41060;DHT22;26811;53.160;8.202;2023-02-03T05:09:28;8.70;99.90
41060;DHT22;26811;53.160;8.202;2023-02-03T05:14:28;8.70;99.90
41060;DHT22;26811;53.160;8.202;2023-02-03T05:19:29;8.70;99.90
41060;DHT22;26811;53.160;8.202;2023-02-03T05:24:29;8.80;99.90
41060;DHT22;26811;53.160;8.202;2023-02-03T05:29:30;8.80;99.90
41060;DHT22;26811;53.160;8.202;2023-02-03T05:34:30;8.80;99.90
41060;DHT22;26811;53.160;8.202;2023-02-03T05:39:31;8.80;99.90
41060;DHT22;26811;53.160;8.202;2023-02-03T05:44:31;8.90;99.90
41060;DHT22;26811;53.160;8.202;2023-02-03T05:49:32;8.80;99.90
41060;DHT22;26811;53.160;8.202;2023-02-03T05:54:32;8.80;99.90
41060;DHT22;26811;53.160;8.202;2023-02-03T05:59:33;8.60;99.90
41060;DHT22;26811;53.160;8.202;2023-02-03T06:04:33;8.60;99.90
41060;DHT22;26811;53.160;8.202;2023-02-03T06:09:34;8.60;99.90
41060;DHT22;26811;53.160;8.202;2023-02-03T06:14:34;8.70;99.90
41060;DHT22;26811;53.160;8.202;2023-02-03T06:19:35;8.80;99.90
41060;DHT22;26811;53.160;8.202;2023-02-03T06:24:35;8.90;99.90
41060;DHT22;26811;53.160;8.202;2023-02-03T06:29:36;9.00;99.90
41060;DHT22;26811;53.160;8.202;2023-02-03T06:34:37;9.10;99.90
41060;DHT22;26811;53.160;8.202;2023-02-03T06:39:37;9.10;99.90
41060;DHT22;26811;53.160;8.202;2023-02-03T06:44:38;9.10;99.90
41060;DHT22;26811;53.160;8.202;2023-02-03T06:49:38;9.20;99.90
41060;DHT22;26811;53.160;8.202;2023-02-03T06:54:39;9.20;99.90
41060;DHT22;26811;53.160;8.202;2023-02-03T06:59:39;9.20;99.90
41060;DHT22;26811;53.160;8.202;2023-02-03T07:04:40;9.30;99.90
41060;DHT22;26811;53.160;8.202;2023-02-03T07:09:40;9.30;99.90
41060;DHT22;26811;53.160;8.202;2023-02-03T07:14:41;9.30;99.90
41060;DHT22;26811;53.160;8.202;2023-02-03T07:19:41;9.30;99.90
41060;DHT22;26811;53.160;8.202;2023-02-03T07:24:42;9.30;99.90
41060;DHT22;26811;53.160;8.202;2023-02-03T07:29:43;9.30;99.90
41060;DHT22;26811;53.160;8.202;2023-02-03T07:34:43;9.40;99.90
41060;DHT22;26811;53.160;8.202;2023-02-03T07:39:44;9.30;99.90
41060;DHT22;26811;53.160;8.202;2023-02-03T07:44:45;9.40;99.90
41060;DHT22;26811;53.160;8.202;2023-02-03T07:49:45;9.40;99.90
41060;DHT22;26811;53.160;8.202;2023-02-03T07:54:46;9.40;99.90
41060;DHT22;26811;53.160;8.202;2023-02-03T07:59:47;9.40;99.90
41060;DHT22;26811;53.160;8.202;2023-02-03T08:04:47;9.40;99.90
41060;DHT22;26811;53.160;8.202;2023-02-03T08:09:48;9.50;99.90
41060;DHT22;26811;53.160;8.202;2023-02-03T08:14:48;9.40;99.90
41060;DHT22;26811;53.160;8.202;2023-02-03T08:19:49;9.30;99.90
41060;DHT22;26811;53.160;8.202;2023-02-03T08:24:49;9.20;99.90
41060;DHT22;26811;53.160;8.202;2023-02-03T08:29:50;9.20;99.90
41060;DHT22;26811;53.160;8.202;2023-02-03T08:34:51;9.30;99.90
41060;DHT22;26811;53.160;8.202;2023-02-03T08:39:52;9.30;99.90
41060;DHT22;26811;53.160;8.202;2023-02-03T08:44:53;9.40;99.90
41060;DHT22;26811;53.160;8.202;2023-02-03T08:49:53;9.40;99.90
41060;DHT22;26811;53.160;8.202;2023-02-03T08:54:54;9.40;99.90
41060;DHT22;26811;53.160;8.202;2023-02-03T08:59:54;9.50;99.90
41060;DHT22;26811;53.160;8.202;2023-02-03T09:04:55;9.40;99.90
41060;DHT22;26811;53.160;8.202;2023-02-03T09:09:55;9.40;99.90
41060;DHT22;26811;53.160;8.202;2023-02-03T09:14:56;9.20;99.90
41060;DHT22;26811;53.160;8.202;2023-02-03T09:19:57;8.90;99.90
41060;DHT22;26811;53.160;8.202;2023-02-03T09:24:57;8.70;99.90
41060;DHT22;26811;53.160;8.202;2023-02-03T09:29:58;8.70;99.90
41060;DHT22;26811;53.160;8.202;2023-02-03T09:34:58;8.80;99.90
41060;DHT22;26811;53.160;8.202;2023-02-03T09:39:59;8.90;99.90
41060;DHT22;26811;53.160;8.202;2023-02-03T09:50:20;9.40;99.90
41060;DHT22;26811;53.160;8.202;2023-02-03T10:00:33;9.70;99.90
41060;DHT22;26811;53.160;8.202;2023-02-03T10:06:05;9.80;99.90
41060;DHT22;26811;53.160;8.202;2023-02-03T10:16:43;9.80;99.90
41060;DHT22;26811;53.160;8.202;2023-02-03T10:21:49;9.80;99.90
41060;DHT22;26811;53.160;8.202;2023-02-03T10:26:51;9.90;99.90
41060;DHT22;26811;53.160;8.202;2023-02-03T10:31:54;9.90;99.90
41060;DHT22;26811;53.160;8.202;2023-02-03T10:36:59;10.10;99.90
41060;DHT22;26811;53.160;8.202;2023-02-03T10:42:04;9.90;99.90
41060;DHT22;26811;53.160;8.202;2023-02-03T10:52:30;9.90;99.90
41060;DHT22;26811;53.160;8.202;2023-02-03T10:57:34;10.10;99.90
41060;DHT22;26811;53.160;8.202;2023-02-03T11:02:35;10.30;99.90
41060;DHT22;26811;53.160;8.202;2023-02-03T11:07:36;10.30;99.90
41060;DHT22;26811;53.160;8.202;2023-02-03T11:12:37;10.40;99.90
41060;DHT22;26811;53.160;8.202;2023-02-03T11:17:42;10.70;99.90
41060;DHT22;26811;53.160;8.202;2023-02-03T11:22:44;10.80;99.90
41060;DHT22;26811;53.160;8.202;2023-02-03T11:27:45;10.70;99.90
41060;DHT22;26811;53.160;8.202;2023-02-03T11:32:48;10.70;99.90
41060;DHT22;26811;53.160;8.202;2023-02-03T11:38:00;10.70;99.90
41060;DHT22;26811;53.160;8.202;2023-02-03T11:43:24;10.60;99.90
41060;DHT22;26811;53.160;8.202;2023-02-03T12:05:00;10.30;99.90
41060;DHT22;26811;53.160;8.202;2023-02-03T12:10:20;10.30;99.90
41060;DHT22;26811;53.160;8.202;2023-02-03T12:26:25;10.00;99.90
41060;DHT22;26811;53.160;8.202;2023-02-03T12:37:08;10.00;99.90
41060;DHT22;26811;53.160;8.202;2023-02-03T12:47:26;9.90;99.90
41060;DHT22;26811;53.160;8.202;2023-02-03T12:52:44;10.00;99.90
41060;DHT22;26811;53.160;8.202;2023-02-03T12:58:04;10.00;99.90
41060;DHT22;26811;53.160;8.202;2023-02-03T13:03:25;9.90;99.90
41060;DHT22;26811;53.160;8.202;2023-02-03T13:08:43;9.90;99.90
41060;DHT22;26811;53.160;8.202;2023-02-03T13:13:52;9.90;99.90
41060;DHT22;26811;53.160;8.202;2023-02-03T13:18:57;9.80;99.90
41060;DHT22;26811;53.160;8.202;2023-02-03T13:23:59;9.80;99.90
41060;DHT22;26811;53.160;8.202;2023-02-03T13:29:27;9.80;99.90
41060;DHT22;26811;53.160;8.202;2023-02-03T13:35:02;9.80;99.90
41060;DHT22;26811;53.160;8.202;2023-02-03T13:45:49;9.40;99.90
41060;DHT22;26811;53.160;8.202;2023-02-03T13:51:06;9.30;99.90
41060;DHT22;26811;53.160;8.202;2023-02-03T13:56:21;9.30;99.90
41060;DHT22;26811;53.160;8.202;2023-02-03T14:01:29;9.30;99.90
41060;DHT22;26811;53.160;8.202;2023-02-03T14:07:00;9.20;99.90
41060;DHT22;26811;53.160;8.202;2023-02-03T14:12:18;9.10;99.90
41060;DHT22;26811;53.160;8.202;2023-02-03T14:22:38;9.10;99.90
41060;DHT22;26811;53.160;8.202;2023-02-03T14:27:39;9.10;99.90
41060;DHT22;26811;53.160;8.202;2023-02-03T14:32:55;9.00;99.90
41060;DHT22;26811;53.160;8.202;2023-02-03T14:38:05;9.00;99.90
41060;DHT22;26811;53.160;8.202;2023-02-03T14:49:01;8.80;99.90
41060;DHT22;26811;53.160;8.202;2023-02-03T14:59:27;8.70;99.90
41060;DHT22;26811;53.160;8.202;2023-02-03T15:04:29;8.70;99.90
41060;DHT22;26811;53.160;8.202;2023-02-03T15:09:44;8.60;99.90
41060;DHT22;26811;53.160;8.202;2023-02-03T15:14:45;8.50;99.90
41060;DHT22;26811;53.160;8.202;2023-02-03T15:19:45;8.50;99.90
41060;DHT22;26811;53.160;8.202;2023-02-03T15:24:46;8.40;99.90
41060;DHT22;26811;53.160;8.202;2023-02-03T15:29:48;8.40;99.90
41060;DHT22;26811;53.160;8.202;2023-02-03T15:34:50;8.40;99.90
41060;DHT22;26811;53.160;8.202;2023-02-03T15:40:11;8.40;99.90
41060;DHT22;26811;53.160;8.202;2023-02-03T15:45:33;8.40;99.90
41060;DHT22;26811;53.160;8.202;2023-02-03T15:50:39;8.30;99.90
41060;DHT22;26811;53.160;8.202;2023-02-03T15:55:44;8.30;99.90
41060;DHT22;26811;53.160;8.202;2023-02-03T16:00:51;8.30;99.90
41060;DHT22;26811;53.160;8.202;2023-02-03T16:05:53;8.20;99.90
41060;DHT22;26811;53.160;8.202;2023-02-03T16:10:54;8.20;99.90
41060;DHT22;26811;53.160;8.202;2023-02-03T16:21:05;8.10;99.90
41060;DHT22;26811;53.160;8.202;2023-02-03T16:26:15;8.10;99.90
41060;DHT22;26811;53.160;8.202;2023-02-03T16:31:20;8.10;99.90
41060;DHT22;26811;53.160;8.202;2023-02-03T16:36:41;8.10;99.90
41060;DHT22;26811;53.160;8.202;2023-02-03T16:42:14;8.00;99.90
41060;DHT22;26811;53.160;8.202;2023-02-03T16:47:33;8.00;99.90
41060;DHT22;26811;53.160;8.202;2023-02-03T16:52:52;7.90;99.90
41060;DHT22;26811;53.160;8.202;2023-02-03T16:57:53;7.90;99.90
41060;DHT22;26811;53.160;8.202;2023-02-03T17:02:53;7.80;99.90
41060;DHT22;26811;53.160;8.202;2023-02-03T17:07:54;7.80;99.90
41060;DHT22;26811;53.160;8.202;2023-02-03T17:12:54;7.80;99.90
41060;DHT22;26811;53.160;8.202;2023-02-03T17:17:59;7.80;99.90
41060;DHT22;26811;53.160;8.202;2023-02-03T17:23:00;7.80;99.90
41060;DHT22;26811;53.160;8.202;2023-02-03T17:28:08;7.80;99.90
41060;DHT22;26811;53.160;8.202;2023-02-03T17:33:10;7.80;99.90
41060;DHT22;26811;53.160;8.202;2023-02-03T17:38:12;7.80;99.90
41060;DHT22;26811;53.160;8.202;2023-02-03T17:43:13;7.80;99.90
41060;DHT22;26811;53.160;8.202;2023-02-03T17:48:14;7.70;99.90
41060;DHT22;26811;53.160;8.202;2023-02-03T17:53:15;7.70;99.90
41060;DHT22;26811;53.160;8.202;2023-02-03T17:58:15;7.70;99.90
41060;DHT22;26811;53.160;8.202;2023-02-03T18:03:16;7.70;99.90
41060;DHT22;26811;53.160;8.202;2023-02-03T18:08:17;7.70;99.90
41060;DHT22;26811;53.160;8.202;2023-02-03T18:13:17;7.60;99.90
41060;DHT22;26811;53.160;8.202;2023-02-03T18:18:18;7.60;99.90
41060;DHT22;26811;53.160;8.202;2023-02-03T18:23:20;7.70;99.90
41060;DHT22;26811;53.160;8.202;2023-02-03T18:28:21;7.70;99.90
41060;DHT22;26811;53.160;8.202;2023-02-03T18:33:22;7.70;99.90
41060;DHT22;26811;53.160;8.202;2023-02-03T18:38:24;7.70;99.90
41060;DHT22;26811;53.160;8.202;2023-02-03T18:43:25;7.70;99.90
41060;DHT22;26811;53.160;8.202;2023-02-03T18:48:25;7.70;99.90
41060;DHT22;26811;53.160;8.202;2023-02-03T18:53:29;7.70;99.90
41060;DHT22;26811;53.160;8.202;2023-02-03T18:58:30;7.70;99.90
41060;DHT22;26811;53.160;8.202;2023-02-03T19:03:31;7.70;99.90
41060;DHT22;26811;53.160;8.202;2023-02-03T19:08:31;7.80;99.90
41060;DHT22;26811;53.160;8.202;2023-02-03T19:13:32;7.80;99.90
41060;DHT22;26811;53.160;8.202;2023-02-03T19:18:32;7.70;99.90
41060;DHT22;26811;53.160;8.202;2023-02-03T19:23:34;7.70;99.90
41060;DHT22;26811;53.160;8.202;2023-02-03T19:28:34;7.70;99.90
41060;DHT22;26811;53.160;8.202;2023-02-03T19:33:35;7.70;99.90
41060;DHT22;26811;53.160;8.202;2023-02-03T19:38:36;7.70;99.90
41060;DHT22;26811;53.160;8.202;2023-02-03T19:43:37;7.70;99.90
41060;DHT22;26811;53.160;8.202;2023-02-03T19:48:37;7.70;99.90
41060;DHT22;26811;53.160;8.202;2023-02-03T19:53:39;7.70;99.90
41060;DHT22;26811;53.160;8.202;2023-02-03T19:58:40;7.70;99.90
41060;DHT22;26811;53.160;8.202;2023-02-03T20:03:40;7.70;99.90
41060;DHT22;26811;53.160;8.202;2023-02-03T20:08:43;7.70;99.90
41060;DHT22;26811;53.160;8.202;2023-02-03T20:13:43;7.70;99.90
41060;DHT22;26811;53.160;8.202;2023-02-03T20:18:44;7.70;99.90
41060;DHT22;26811;53.160;8.202;2023-02-03T20:23:45;7.70;99.90
41060;DHT22;26811;53.160;8.202;2023-02-03T20:28:45;7.70;99.90
41060;DHT22;26811;53.160;8.202;2023-02-03T20:33:46;7.70;99.90
41060;DHT22;26811;53.160;8.202;2023-02-03T20:38:47;7.60;99.90
41060;DHT22;26811;53.160;8.202;2023-02-03T20:43:48;7.40;99.90
41060;DHT22;26811;53.160;8.202;2023-02-03T20:48:49;7.10;99.90
41060;DHT22;26811;53.160;8.202;2023-02-03T20:53:49;6.90;99.90
41060;DHT22;26811;53.160;8.202;2023-02-03T20:58:51;6.80;99.90
41060;DHT22;26811;53.160;8.202;2023-02-03T21:03:52;6.80;99.90
41060;DHT22;26811;53.160;8.202;2023-02-03T21:09:18;6.80;99.90
41060;DHT22;26811;53.160;8.202;2023-02-03T21:14:43;6.70;99.90
41060;DHT22;26811;53.160;8.202;2023-02-03T21:19:44;6.70;99.90
41060;DHT22;26811;53.160;8.202;2023-02-03T21:24:56;6.60;99.90
41060;DHT22;26811;53.160;8.202;2023-02-03T21:29:58;6.70;99.90
41060;DHT22;26811;53.160;8.202;2023-02-03T21:34:59;6.80;99.90
41060;DHT22;26811;53.160;8.202;2023-02-03T21:40:00;6.90;99.90
41060;DHT22;26811;53.160;8.202;2023-02-03T21:45:00;6.80;99.90
41060;DHT22;26811;53.160;8.202;2023-02-03T21:50:01;6.70;99.90
41060;DHT22;26811;53.160;8.202;2023-02-03T21:55:09;6.60;99.90
41060;DHT22;26811;53.160;8.202;2023-02-03T22:00:40;6.70;99.90
41060;DHT22;26811;53.160;8.202;2023-02-03T22:05:42;6.80;99.90
41060;DHT22;26811;53.160;8.202;2023-02-03T22:10:43;6.90;99.90
41060;DHT22;26811;53.160;8.202;2023-02-03T22:15:43;7.00;99.90
41060;DHT22;26811;53.160;8.202;2023-02-03T22:20:44;7.10;99.90
41060;DHT22;26811;53.160;8.202;2023-02-03T22:25:45;7.10;99.90
41060;DHT22;26811;53.160;8.202;2023-02-03T22:30:45;7.20;99.90
41060;DHT22;26811;53.160;8.202;2023-02-03T22:35:47;7.20;99.90
41060;DHT22;26811;53.160;8.202;2023-02-03T22:40:47;7.30;99.90
41060;DHT22;26811;53.160;8.202;2023-02-03T22:45:48;7.30;99.90
41060;DHT22;26811;53.160;8.202;2023-02-03T22:50:48;7.30;99.90
41060;DHT22;26811;53.160;8.202;2023-02-03T22:55:49;7.40;99.90
41060;DHT22;26811;53.160;8.202;2023-02-03T23:00:49;7.40;99.90
41060;DHT22;26811;53.160;8.202;2023-02-03T23:05:50;7.40;99.90
41060;DHT22;26811;53.160;8.202;2023-02-03T23:10:50;7.40;99.90
41060;DHT22;26811;53.160;8.202;2023-02-03T23:15:51;7.30;99.90
41060;DHT22;26811;53.160;8.202;2023-02-03T23:20:51;7.00;99.90
41060;DHT22;26811;53.160;8.202;2023-02-03T23:25:52;6.70;99.90
41060;DHT22;26811;53.160;8.202;2023-02-03T23:30:52;6.50;99.90
41060;DHT22;26811;53.160;8.202;2023-02-03T23:35:55;6.30;99.90
41060;DHT22;26811;53.160;8.202;2023-02-03T23:40:55;6.10;99.90
41060;DHT22;26811;53.160;8.202;2023-02-03T23:45:56;6.00;99.90
41060;DHT22;26811;53.160;8.202;2023-02-03T23:50:56;5.90;99.90
41060;DHT22;26811;53.160;8.202;2023-02-03T23:55:57;5.70;99.90
